sensor_id;sensor_type;location;lat;lon;timestamp;temperature;humidity
10980;DHT22;5543;51.734;8.744;2022-11-24T00:01:17;6.90;99.90
10980;DHT22;5543;51.734;8.744;2022-11-24T00:03:52;7.00;99.90
10980;DHT22;5543;51.734;8.744;2022-11-24T00:06:22;7.00;99.90
10980;DHT22;5543;51.734;8.744;2022-11-24T00:08:51;6.90;99.90
10980;DHT22;5543;51.734;8.744;2022-11-24T00:11:20;6.80;99.90
10980;DHT22;5543;51.734;8.744;2022-11-24T00:13:49;6.80;99.90
10980;DHT22;5543;51.734;8.744;2022-11-24T00:16:19;6.80;99.90
10980;DHT22;5543;51.734;8.744;2022-11-24T00:18:48;6.80;99.90
10980;DHT22;5543;51.734;8.744;2022-11-24T00:21:18;6.70;99.90
10980;DHT22;5543;51.734;8.744;2022-11-24T00:23:48;6.70;99.90
10980;DHT22;5543;51.734;8.744;2022-11-24T00:26:17;6.70;99.90
10980;DHT22;5543;51.734;8.744;2022-11-24T00:28:47;6.60;99.90
10980;DHT22;5543;51.734;8.744;2022-11-24T00:31:17;6.60;99.90
10980;DHT22;5543;51.734;8.744;2022-11-24T00:33:47;6.50;99.90
10980;DHT22;5543;51.734;8.744;2022-11-24T00:36:17;6.50;99.90
10980;DHT22;5543;51.734;8.744;2022-11-24T00:38:45;6.50;99.90
10980;DHT22;5543;51.734;8.744;2022-11-24T00:41:15;6.40;99.90
10980;DHT22;5543;51.734;8.744;2022-11-24T00:43:43;6.40;99.90
10980;DHT22;5543;51.734;8.744;2022-11-24T00:46:11;6.40;99.90
10980;DHT22;5543;51.734;8.744;2022-11-24T00:48:39;6.40;99.90
10980;DHT22;5543;51.734;8.744;2022-11-24T00:51:10;6.40;99.90
10980;DHT22;5543;51.734;8.744;2022-11-24T00:53:39;6.40;99.90
10980;DHT22;5543;51.734;8.744;2022-11-24T00:56:08;6.50;99.90
10980;DHT22;5543;51.734;8.744;2022-11-24T00:58:38;6.60;99.90
10980;DHT22;5543;51.734;8.744;2022-11-24T01:01:13;6.50;99.90
10980;DHT22;5543;51.734;8.744;2022-11-24T01:03:41;6.50;99.90
10980;DHT22;5543;51.734;8.744;2022-11-24T01:06:12;6.60;99.90
10980;DHT22;5543;51.734;8.744;2022-11-24T01:08:40;6.60;99.90
10980;DHT22;5543;51.734;8.744;2022-11-24T01:11:10;6.80;99.90
10980;DHT22;5543;51.734;8.744;2022-11-24T01:13:41;6.60;99.90
10980;DHT22;5543;51.734;8.744;2022-11-24T01:16:15;6.60;99.90
10980;DHT22;5543;51.734;8.744;2022-11-24T01:18:43;6.80;99.90
10980;DHT22;5543;51.734;8.744;2022-11-24T01:21:12;6.60;99.90
10980;DHT22;5543;51.734;8.744;2022-11-24T01:23:40;6.60;99.90
10980;DHT22;5543;51.734;8.744;2022-11-24T01:26:10;6.60;99.90
10980;DHT22;5543;51.734;8.744;2022-11-24T01:28:40;6.60;99.90
10980;DHT22;5543;51.734;8.744;2022-11-24T01:31:14;6.60;99.90
10980;DHT22;5543;51.734;8.744;2022-11-24T01:33:42;6.60;99.90
10980;DHT22;5543;51.734;8.744;2022-11-24T01:36:11;6.60;99.90
10980;DHT22;5543;51.734;8.744;2022-11-24T01:38:39;6.60;99.90
10980;DHT22;5543;51.734;8.744;2022-11-24T01:41:10;6.60;99.90
10980;DHT22;5543;51.734;8.744;2022-11-24T01:43:41;6.60;99.90
10980;DHT22;5543;51.734;8.744;2022-11-24T01:46:15;6.50;99.90
10980;DHT22;5543;51.734;8.744;2022-11-24T01:48:47;6.50;99.90
10980;DHT22;5543;51.734;8.744;2022-11-24T01:51:20;6.50;99.90
10980;DHT22;5543;51.734;8.744;2022-11-24T01:53:52;6.50;99.90
10980;DHT22;5543;51.734;8.744;2022-11-24T01:56:22;6.60;99.90
10980;DHT22;5543;51.734;8.744;2022-11-24T01:58:54;6.60;99.90
10980;DHT22;5543;51.734;8.744;2022-11-24T02:01:23;6.80;99.90
10980;DHT22;5543;51.734;8.744;2022-11-24T02:03:52;6.90;99.90
10980;DHT22;5543;51.734;8.744;2022-11-24T02:06:22;7.00;99.90
10980;DHT22;5543;51.734;8.744;2022-11-24T02:08:57;7.10;99.90
10980;DHT22;5543;51.734;8.744;2022-11-24T02:11:28;7.20;99.90
10980;DHT22;5543;51.734;8.744;2022-11-24T02:13:59;7.20;99.90
10980;DHT22;5543;51.734;8.744;2022-11-24T02:16:28;7.20;99.90
10980;DHT22;5543;51.734;8.744;2022-11-24T02:18:56;7.10;99.90
10980;DHT22;5543;51.734;8.744;2022-11-24T02:21:24;7.10;99.90
10980;DHT22;5543;51.734;8.744;2022-11-24T02:23:58;7.20;99.90
10980;DHT22;5543;51.734;8.744;2022-11-24T02:26:36;7.00;99.90
10980;DHT22;5543;51.734;8.744;2022-11-24T02:29:05;7.00;99.90
10980;DHT22;5543;51.734;8.744;2022-11-24T02:31:34;7.00;99.90
10980;DHT22;5543;51.734;8.744;2022-11-24T02:34:02;7.00;99.90
10980;DHT22;5543;51.734;8.744;2022-11-24T02:36:30;7.00;99.90
10980;DHT22;5543;51.734;8.744;2022-11-24T02:38:58;7.00;99.90
10980;DHT22;5543;51.734;8.744;2022-11-24T02:41:26;7.30;99.90
10980;DHT22;5543;51.734;8.744;2022-11-24T02:43:59;7.00;99.90
10980;DHT22;5543;51.734;8.744;2022-11-24T02:46:28;7.20;99.90
10980;DHT22;5543;51.734;8.744;2022-11-24T02:48:56;7.00;99.90
10980;DHT22;5543;51.734;8.744;2022-11-24T02:51:24;7.00;99.90
10980;DHT22;5543;51.734;8.744;2022-11-24T02:53:52;7.00;99.90
10980;DHT22;5543;51.734;8.744;2022-11-24T02:56:20;7.00;99.90
10980;DHT22;5543;51.734;8.744;2022-11-24T02:58:48;7.00;99.90
10980;DHT22;5543;51.734;8.744;2022-11-24T03:01:18;7.00;99.90
10980;DHT22;5543;51.734;8.744;2022-11-24T03:03:46;7.00;99.90
10980;DHT22;5543;51.734;8.744;2022-11-24T03:06:14;7.00;99.90
10980;DHT22;5543;51.734;8.744;2022-11-24T03:08:42;7.00;99.90
10980;DHT22;5543;51.734;8.744;2022-11-24T03:11:10;7.00;99.90
10980;DHT22;5543;51.734;8.744;2022-11-24T03:13:38;6.90;99.90
10980;DHT22;5543;51.734;8.744;2022-11-24T03:16:07;7.00;99.90
10980;DHT22;5543;51.734;8.744;2022-11-24T03:18:38;7.10;99.90
10980;DHT22;5543;51.734;8.744;2022-11-24T03:21:06;6.80;99.90
10980;DHT22;5543;51.734;8.744;2022-11-24T03:23:37;6.80;99.90
10980;DHT22;5543;51.734;8.744;2022-11-24T03:26:06;6.70;99.90
10980;DHT22;5543;51.734;8.744;2022-11-24T03:28:35;6.60;99.90
10980;DHT22;5543;51.734;8.744;2022-11-24T03:31:04;6.60;99.90
10980;DHT22;5543;51.734;8.744;2022-11-24T03:33:33;6.60;99.90
10980;DHT22;5543;51.734;8.744;2022-11-24T03:36:04;6.60;99.90
10980;DHT22;5543;51.734;8.744;2022-11-24T03:38:32;6.50;99.90
10980;DHT22;5543;51.734;8.744;2022-11-24T03:41:00;6.50;99.90
10980;DHT22;5543;51.734;8.744;2022-11-24T03:43:28;6.60;99.90
10980;DHT22;5543;51.734;8.744;2022-11-24T03:45:57;6.60;99.90
10980;DHT22;5543;51.734;8.744;2022-11-24T03:48:25;6.60;99.90
10980;DHT22;5543;51.734;8.744;2022-11-24T03:50:54;6.70;99.90
10980;DHT22;5543;51.734;8.744;2022-11-24T03:53:25;6.80;99.90
10980;DHT22;5543;51.734;8.744;2022-11-24T03:55:54;6.80;99.90
10980;DHT22;5543;51.734;8.744;2022-11-24T03:58:22;6.90;99.90
10980;DHT22;5543;51.734;8.744;2022-11-24T04:00:52;6.90;99.90
10980;DHT22;5543;51.734;8.744;2022-11-24T04:03:20;7.30;99.90
10980;DHT22;5543;51.734;8.744;2022-11-24T04:05:49;7.10;99.90
10980;DHT22;5543;51.734;8.744;2022-11-24T04:08:17;7.10;99.90
10980;DHT22;5543;51.734;8.744;2022-11-24T04:10:50;7.20;99.90
10980;DHT22;5543;51.734;8.744;2022-11-24T04:13:21;7.10;99.90
10980;DHT22;5543;51.734;8.744;2022-11-24T04:15:49;7.30;99.90
10980;DHT22;5543;51.734;8.744;2022-11-24T04:18:17;7.60;99.90
10980;DHT22;5543;51.734;8.744;2022-11-24T04:20:48;7.40;99.90
10980;DHT22;5543;51.734;8.744;2022-11-24T04:23:16;7.50;99.90
10980;DHT22;5543;51.734;8.744;2022-11-24T04:25:45;7.50;99.90
10980;DHT22;5543;51.734;8.744;2022-11-24T04:28:14;7.60;99.90
10980;DHT22;5543;51.734;8.744;2022-11-24T04:30:42;7.60;99.90
10980;DHT22;5543;51.734;8.744;2022-11-24T04:33:11;7.60;99.90
10980;DHT22;5543;51.734;8.744;2022-11-24T04:35:39;7.60;99.90
10980;DHT22;5543;51.734;8.744;2022-11-24T04:38:08;7.60;99.90
10980;DHT22;5543;51.734;8.744;2022-11-24T04:40:36;7.60;99.90
10980;DHT22;5543;51.734;8.744;2022-11-24T04:43:04;7.60;99.90
10980;DHT22;5543;51.734;8.744;2022-11-24T04:45:34;7.60;99.90
10980;DHT22;5543;51.734;8.744;2022-11-24T04:48:02;7.60;99.90
10980;DHT22;5543;51.734;8.744;2022-11-24T04:50:30;7.60;99.90
10980;DHT22;5543;51.734;8.744;2022-11-24T04:52:58;7.60;99.90
10980;DHT22;5543;51.734;8.744;2022-11-24T04:55:26;7.60;99.90
10980;DHT22;5543;51.734;8.744;2022-11-24T04:57:55;7.70;99.90
10980;DHT22;5543;51.734;8.744;2022-11-24T05:00:23;7.80;99.90
10980;DHT22;5543;51.734;8.744;2022-11-24T05:02:52;7.80;99.90
10980;DHT22;5543;51.734;8.744;2022-11-24T05:05:20;7.70;99.90
10980;DHT22;5543;51.734;8.744;2022-11-24T05:07:48;7.80;99.90
10980;DHT22;5543;51.734;8.744;2022-11-24T05:10:16;7.80;99.90
10980;DHT22;5543;51.734;8.744;2022-11-24T05:13:02;7.90;99.90
10980;DHT22;5543;51.734;8.744;2022-11-24T05:15:31;8.00;99.90
10980;DHT22;5543;51.734;8.744;2022-11-24T05:18:03;8.10;99.90
10980;DHT22;5543;51.734;8.744;2022-11-24T05:20:31;7.90;99.90
10980;DHT22;5543;51.734;8.744;2022-11-24T05:23:03;7.90;99.90
10980;DHT22;5543;51.734;8.744;2022-11-24T05:25:32;7.90;99.90
10980;DHT22;5543;51.734;8.744;2022-11-24T05:28:00;7.80;99.90
10980;DHT22;5543;51.734;8.744;2022-11-24T05:30:30;7.90;99.90
10980;DHT22;5543;51.734;8.744;2022-11-24T05:33:02;7.80;99.90
10980;DHT22;5543;51.734;8.744;2022-11-24T05:35:33;7.80;99.90
10980;DHT22;5543;51.734;8.744;2022-11-24T05:38:01;7.80;99.90
10980;DHT22;5543;51.734;8.744;2022-11-24T05:40:30;7.70;99.90
10980;DHT22;5543;51.734;8.744;2022-11-24T05:42:58;7.50;99.90
10980;DHT22;5543;51.734;8.744;2022-11-24T05:45:26;7.40;99.90
10980;DHT22;5543;51.734;8.744;2022-11-24T05:47:54;7.40;99.90
10980;DHT22;5543;51.734;8.744;2022-11-24T05:50:31;7.50;99.90
10980;DHT22;5543;51.734;8.744;2022-11-24T05:53:01;7.50;99.90
10980;DHT22;5543;51.734;8.744;2022-11-24T05:55:29;7.60;99.90
10980;DHT22;5543;51.734;8.744;2022-11-24T05:57:58;7.60;99.90
10980;DHT22;5543;51.734;8.744;2022-11-24T06:00:27;7.60;99.90
10980;DHT22;5543;51.734;8.744;2022-11-24T06:02:55;7.50;99.90
10980;DHT22;5543;51.734;8.744;2022-11-24T06:05:24;7.70;99.90
10980;DHT22;5543;51.734;8.744;2022-11-24T06:07:54;7.50;99.90
10980;DHT22;5543;51.734;8.744;2022-11-24T06:10:22;7.50;99.90
10980;DHT22;5543;51.734;8.744;2022-11-24T06:12:50;7.40;99.90
10980;DHT22;5543;51.734;8.744;2022-11-24T06:15:19;7.70;99.90
10980;DHT22;5543;51.734;8.744;2022-11-24T06:17:52;7.50;99.90
10980;DHT22;5543;51.734;8.744;2022-11-24T06:20:22;7.50;99.90
10980;DHT22;5543;51.734;8.744;2022-11-24T06:22:59;7.50;99.90
10980;DHT22;5543;51.734;8.744;2022-11-24T06:25:28;7.50;99.90
10980;DHT22;5543;51.734;8.744;2022-11-24T06:27:56;7.50;99.90
10980;DHT22;5543;51.734;8.744;2022-11-24T06:30:24;7.60;99.90
10980;DHT22;5543;51.734;8.744;2022-11-24T06:32:54;7.60;99.90
10980;DHT22;5543;51.734;8.744;2022-11-24T06:35:22;7.60;99.90
10980;DHT22;5543;51.734;8.744;2022-11-24T06:37:50;7.70;99.90
10980;DHT22;5543;51.734;8.744;2022-11-24T06:40:19;7.70;99.90
10980;DHT22;5543;51.734;8.744;2022-11-24T06:42:50;7.70;99.90
10980;DHT22;5543;51.734;8.744;2022-11-24T06:45:18;7.70;99.90
10980;DHT22;5543;51.734;8.744;2022-11-24T06:47:47;7.70;99.90
10980;DHT22;5543;51.734;8.744;2022-11-24T06:50:15;7.70;99.90
10980;DHT22;5543;51.734;8.744;2022-11-24T06:52:43;7.70;99.90
10980;DHT22;5543;51.734;8.744;2022-11-24T06:55:11;7.80;99.90
10980;DHT22;5543;51.734;8.744;2022-11-24T06:57:40;7.70;99.90
10980;DHT22;5543;51.734;8.744;2022-11-24T07:00:09;7.70;99.90
10980;DHT22;5543;51.734;8.744;2022-11-24T07:02:37;7.70;99.90
10980;DHT22;5543;51.734;8.744;2022-11-24T07:05:11;7.70;99.90
10980;DHT22;5543;51.734;8.744;2022-11-24T07:07:40;7.80;99.90
10980;DHT22;5543;51.734;8.744;2022-11-24T07:10:08;7.80;99.90
10980;DHT22;5543;51.734;8.744;2022-11-24T07:12:36;7.80;99.90
10980;DHT22;5543;51.734;8.744;2022-11-24T07:15:07;7.70;99.90
10980;DHT22;5543;51.734;8.744;2022-11-24T07:17:35;7.80;99.90
10980;DHT22;5543;51.734;8.744;2022-11-24T07:20:05;7.80;99.90
10980;DHT22;5543;51.734;8.744;2022-11-24T07:22:34;7.80;99.90
10980;DHT22;5543;51.734;8.744;2022-11-24T07:25:02;7.80;99.90
10980;DHT22;5543;51.734;8.744;2022-11-24T07:27:33;7.80;99.90
10980;DHT22;5543;51.734;8.744;2022-11-24T07:30:01;7.80;99.90
10980;DHT22;5543;51.734;8.744;2022-11-24T07:32:30;7.90;99.90
10980;DHT22;5543;51.734;8.744;2022-11-24T07:34:59;7.90;99.90
10980;DHT22;5543;51.734;8.744;2022-11-24T07:37:27;7.90;99.90
10980;DHT22;5543;51.734;8.744;2022-11-24T07:39:57;7.90;99.90
10980;DHT22;5543;51.734;8.744;2022-11-24T07:42:26;7.90;99.90
10980;DHT22;5543;51.734;8.744;2022-11-24T07:44:54;8.00;99.90
10980;DHT22;5543;51.734;8.744;2022-11-24T07:47:22;7.80;99.90
10980;DHT22;5543;51.734;8.744;2022-11-24T07:49:52;7.90;99.90
10980;DHT22;5543;51.734;8.744;2022-11-24T07:52:20;7.90;99.90
10980;DHT22;5543;51.734;8.744;2022-11-24T07:54:49;8.00;99.90
10980;DHT22;5543;51.734;8.744;2022-11-24T07:57:17;8.00;99.90
10980;DHT22;5543;51.734;8.744;2022-11-24T07:59:45;8.00;99.90
10980;DHT22;5543;51.734;8.744;2022-11-24T08:02:13;7.90;99.90
10980;DHT22;5543;51.734;8.744;2022-11-24T08:04:41;8.00;99.90
10980;DHT22;5543;51.734;8.744;2022-11-24T08:07:11;8.00;99.90
10980;DHT22;5543;51.734;8.744;2022-11-24T08:09:39;8.10;99.90
10980;DHT22;5543;51.734;8.744;2022-11-24T08:12:07;8.10;99.90
10980;DHT22;5543;51.734;8.744;2022-11-24T08:14:35;8.20;99.90
10980;DHT22;5543;51.734;8.744;2022-11-24T08:17:03;8.20;99.90
10980;DHT22;5543;51.734;8.744;2022-11-24T08:19:32;8.20;99.90
10980;DHT22;5543;51.734;8.744;2022-11-24T08:22:00;8.30;99.90
10980;DHT22;5543;51.734;8.744;2022-11-24T08:24:29;8.40;99.90
10980;DHT22;5543;51.734;8.744;2022-11-24T08:26:58;8.30;99.90
10980;DHT22;5543;51.734;8.744;2022-11-24T08:29:27;8.60;99.90
10980;DHT22;5543;51.734;8.744;2022-11-24T08:31:56;8.40;99.90
10980;DHT22;5543;51.734;8.744;2022-11-24T08:34:24;8.50;99.90
10980;DHT22;5543;51.734;8.744;2022-11-24T08:36:52;8.60;99.90
10980;DHT22;5543;51.734;8.744;2022-11-24T08:39:21;8.50;99.90
10980;DHT22;5543;51.734;8.744;2022-11-24T08:41:50;8.60;99.90
10980;DHT22;5543;51.734;8.744;2022-11-24T08:44:18;8.60;99.90
10980;DHT22;5543;51.734;8.744;2022-11-24T08:46:46;8.70;99.90
10980;DHT22;5543;51.734;8.744;2022-11-24T08:49:16;8.80;99.90
10980;DHT22;5543;51.734;8.744;2022-11-24T08:51:44;8.80;99.90
10980;DHT22;5543;51.734;8.744;2022-11-24T08:54:14;8.90;99.90
10980;DHT22;5543;51.734;8.744;2022-11-24T08:56:44;8.90;99.90
10980;DHT22;5543;51.734;8.744;2022-11-24T08:59:14;8.90;99.90
10980;DHT22;5543;51.734;8.744;2022-11-24T09:01:48;9.00;99.90
10980;DHT22;5543;51.734;8.744;2022-11-24T09:04:18;9.10;99.90
10980;DHT22;5543;51.734;8.744;2022-11-24T09:06:46;9.30;99.90
10980;DHT22;5543;51.734;8.744;2022-11-24T09:09:14;9.40;99.90
10980;DHT22;5543;51.734;8.744;2022-11-24T09:11:42;9.60;99.90
10980;DHT22;5543;51.734;8.744;2022-11-24T09:14:10;9.90;99.90
10980;DHT22;5543;51.734;8.744;2022-11-24T09:16:40;10.10;99.90
10980;DHT22;5543;51.734;8.744;2022-11-24T09:19:09;10.30;99.90
10980;DHT22;5543;51.734;8.744;2022-11-24T09:21:37;10.40;99.90
10980;DHT22;5543;51.734;8.744;2022-11-24T09:24:06;10.40;99.90
10980;DHT22;5543;51.734;8.744;2022-11-24T09:26:35;10.50;99.90
10980;DHT22;5543;51.734;8.744;2022-11-24T09:29:11;10.50;99.90
10980;DHT22;5543;51.734;8.744;2022-11-24T09:31:41;10.50;99.90
10980;DHT22;5543;51.734;8.744;2022-11-24T09:34:12;10.50;99.90
10980;DHT22;5543;51.734;8.744;2022-11-24T09:36:41;10.40;99.90
10980;DHT22;5543;51.734;8.744;2022-11-24T09:39:09;10.30;99.90
10980;DHT22;5543;51.734;8.744;2022-11-24T09:42:01;10.30;99.90
10980;DHT22;5543;51.734;8.744;2022-11-24T09:47:52;10.50;99.90
10980;DHT22;5543;51.734;8.744;2022-11-24T09:50:25;10.70;99.90
10980;DHT22;5543;51.734;8.744;2022-11-24T09:52:57;11.00;99.90
10980;DHT22;5543;51.734;8.744;2022-11-24T09:55:36;11.60;99.90
10980;DHT22;5543;51.734;8.744;2022-11-24T09:58:20;12.40;99.90
10980;DHT22;5543;51.734;8.744;2022-11-24T10:00:52;12.80;99.90
10980;DHT22;5543;51.734;8.744;2022-11-24T10:03:25;12.70;99.90
10980;DHT22;5543;51.734;8.744;2022-11-24T10:05:54;12.80;99.90
10980;DHT22;5543;51.734;8.744;2022-11-24T10:08:31;12.70;99.90
10980;DHT22;5543;51.734;8.744;2022-11-24T10:11:10;12.50;99.90
10980;DHT22;5543;51.734;8.744;2022-11-24T10:13:54;12.50;99.90
10980;DHT22;5543;51.734;8.744;2022-11-24T10:16:35;12.40;99.90
10980;DHT22;5543;51.734;8.744;2022-11-24T10:19:11;12.10;99.90
10980;DHT22;5543;51.734;8.744;2022-11-24T10:21:54;11.90;99.90
10980;DHT22;5543;51.734;8.744;2022-11-24T10:27:22;11.80;99.90
10980;DHT22;5543;51.734;8.744;2022-11-24T10:29:53;11.60;99.90
10980;DHT22;5543;51.734;8.744;2022-11-24T10:32:25;11.40;99.90
10980;DHT22;5543;51.734;8.744;2022-11-24T10:35:05;11.30;99.90
10980;DHT22;5543;51.734;8.744;2022-11-24T10:37:42;11.10;99.90
10980;DHT22;5543;51.734;8.744;2022-11-24T10:40:20;11.20;99.90
10980;DHT22;5543;51.734;8.744;2022-11-24T10:43:11;11.00;99.90
10980;DHT22;5543;51.734;8.744;2022-11-24T10:45:40;10.90;99.90
10980;DHT22;5543;51.734;8.744;2022-11-24T10:48:16;10.90;99.90
10980;DHT22;5543;51.734;8.744;2022-11-24T10:50:46;10.90;99.90
10980;DHT22;5543;51.734;8.744;2022-11-24T10:53:18;10.70;99.90
10980;DHT22;5543;51.734;8.744;2022-11-24T10:56:01;10.70;99.90
10980;DHT22;5543;51.734;8.744;2022-11-24T10:58:31;10.60;99.90
10980;DHT22;5543;51.734;8.744;2022-11-24T11:01:19;10.70;99.90
10980;DHT22;5543;51.734;8.744;2022-11-24T11:03:48;10.70;99.90
10980;DHT22;5543;51.734;8.744;2022-11-24T11:06:22;10.80;99.90
10980;DHT22;5543;51.734;8.744;2022-11-24T11:09:15;10.70;99.90
10980;DHT22;5543;51.734;8.744;2022-11-24T11:11:45;10.90;99.90
10980;DHT22;5543;51.734;8.744;2022-11-24T11:14:28;11.10;99.90
10980;DHT22;5543;51.734;8.744;2022-11-24T11:16:57;11.20;99.90
10980;DHT22;5543;51.734;8.744;2022-11-24T11:19:34;11.20;99.90
10980;DHT22;5543;51.734;8.744;2022-11-24T11:22:26;11.20;99.90
10980;DHT22;5543;51.734;8.744;2022-11-24T11:25:15;11.30;99.90
10980;DHT22;5543;51.734;8.744;2022-11-24T11:27:45;11.10;99.90
10980;DHT22;5543;51.734;8.744;2022-11-24T11:30:19;11.10;99.90
10980;DHT22;5543;51.734;8.744;2022-11-24T11:33:21;11.00;99.90
10980;DHT22;5543;51.734;8.744;2022-11-24T11:36:10;11.10;99.90
10980;DHT22;5543;51.734;8.744;2022-11-24T11:38:40;11.00;99.90
10980;DHT22;5543;51.734;8.744;2022-11-24T11:41:16;11.00;99.90
10980;DHT22;5543;51.734;8.744;2022-11-24T11:43:48;11.00;99.90
10980;DHT22;5543;51.734;8.744;2022-11-24T11:46:17;10.90;99.90
10980;DHT22;5543;51.734;8.744;2022-11-24T11:48:46;10.80;99.90
10980;DHT22;5543;51.734;8.744;2022-11-24T11:51:28;10.80;99.90
10980;DHT22;5543;51.734;8.744;2022-11-24T11:54:04;10.70;99.90
10980;DHT22;5543;51.734;8.744;2022-11-24T11:56:36;10.50;99.90
10980;DHT22;5543;51.734;8.744;2022-11-24T11:59:39;10.40;99.90
10980;DHT22;5543;51.734;8.744;2022-11-24T12:02:23;10.40;99.90
10980;DHT22;5543;51.734;8.744;2022-11-24T12:04:59;10.20;99.90
10980;DHT22;5543;51.734;8.744;2022-11-24T12:10:27;10.20;99.90
10980;DHT22;5543;51.734;8.744;2022-11-24T12:13:13;10.20;99.90
10980;DHT22;5543;51.734;8.744;2022-11-24T12:15:48;10.10;99.90
10980;DHT22;5543;51.734;8.744;2022-11-24T12:18:26;10.10;99.90
10980;DHT22;5543;51.734;8.744;2022-11-24T12:21:24;10.00;99.90
10980;DHT22;5543;51.734;8.744;2022-11-24T12:24:03;10.00;99.90
10980;DHT22;5543;51.734;8.744;2022-11-24T12:26:40;9.90;99.90
10980;DHT22;5543;51.734;8.744;2022-11-24T12:29:32;9.80;99.90
10980;DHT22;5543;51.734;8.744;2022-11-24T12:32:15;9.70;99.90
10980;DHT22;5543;51.734;8.744;2022-11-24T12:34:53;9.70;99.90
10980;DHT22;5543;51.734;8.744;2022-11-24T12:37:38;9.70;99.90
10980;DHT22;5543;51.734;8.744;2022-11-24T12:40:13;9.70;99.90
10980;DHT22;5543;51.734;8.744;2022-11-24T12:42:51;9.70;99.90
10980;DHT22;5543;51.734;8.744;2022-11-24T12:45:31;9.50;99.90
10980;DHT22;5543;51.734;8.744;2022-11-24T12:48:16;9.40;99.90
10980;DHT22;5543;51.734;8.744;2022-11-24T12:50:46;9.30;99.90
10980;DHT22;5543;51.734;8.744;2022-11-24T12:53:16;9.20;99.90
10980;DHT22;5543;51.734;8.744;2022-11-24T12:55:46;9.10;99.90
10980;DHT22;5543;51.734;8.744;2022-11-24T12:58:22;9.10;99.90
10980;DHT22;5543;51.734;8.744;2022-11-24T13:01:02;9.10;99.90
10980;DHT22;5543;51.734;8.744;2022-11-24T13:03:47;9.10;99.90
10980;DHT22;5543;51.734;8.744;2022-11-24T13:06:22;9.30;99.90
10980;DHT22;5543;51.734;8.744;2022-11-24T13:08:51;9.50;99.90
10980;DHT22;5543;51.734;8.744;2022-11-24T13:11:35;9.50;99.90
10980;DHT22;5543;51.734;8.744;2022-11-24T13:14:10;9.60;99.90
10980;DHT22;5543;51.734;8.744;2022-11-24T13:16:53;9.60;99.90
10980;DHT22;5543;51.734;8.744;2022-11-24T13:19:42;9.70;99.90
10980;DHT22;5543;51.734;8.744;2022-11-24T13:22:15;9.70;99.90
10980;DHT22;5543;51.734;8.744;2022-11-24T13:24:45;9.70;99.90
10980;DHT22;5543;51.734;8.744;2022-11-24T13:27:44;9.70;99.90
10980;DHT22;5543;51.734;8.744;2022-11-24T13:33:37;9.70;99.90
10980;DHT22;5543;51.734;8.744;2022-11-24T13:36:32;9.70;99.90
10980;DHT22;5543;51.734;8.744;2022-11-24T13:39:03;9.60;99.90
10980;DHT22;5543;51.734;8.744;2022-11-24T13:41:59;9.50;99.90
10980;DHT22;5543;51.734;8.744;2022-11-24T13:44:27;9.50;99.90
10980;DHT22;5543;51.734;8.744;2022-11-24T13:47:28;9.50;99.90
10980;DHT22;5543;51.734;8.744;2022-11-24T13:49:58;9.50;99.90
10980;DHT22;5543;51.734;8.744;2022-11-24T13:52:47;9.60;99.90
10980;DHT22;5543;51.734;8.744;2022-11-24T13:55:34;9.50;99.90
10980;DHT22;5543;51.734;8.744;2022-11-24T13:58:28;9.60;99.90
10980;DHT22;5543;51.734;8.744;2022-11-24T14:01:03;9.60;99.90
10980;DHT22;5543;51.734;8.744;2022-11-24T14:03:34;9.60;99.90
10980;DHT22;5543;51.734;8.744;2022-11-24T14:06:05;9.60;99.90
10980;DHT22;5543;51.734;8.744;2022-11-24T14:08:35;9.60;99.90
10980;DHT22;5543;51.734;8.744;2022-11-24T14:11:11;9.80;99.90
10980;DHT22;5543;51.734;8.744;2022-11-24T14:13:40;9.90;99.90
10980;DHT22;5543;51.734;8.744;2022-11-24T14:16:14;9.90;99.90
10980;DHT22;5543;51.734;8.744;2022-11-24T14:18:45;10.00;99.90
10980;DHT22;5543;51.734;8.744;2022-11-24T14:21:26;9.90;99.90
10980;DHT22;5543;51.734;8.744;2022-11-24T14:23:56;9.90;99.90
10980;DHT22;5543;51.734;8.744;2022-11-24T14:26:30;9.80;99.90
10980;DHT22;5543;51.734;8.744;2022-11-24T14:29:04;9.70;99.90
10980;DHT22;5543;51.734;8.744;2022-11-24T14:31:33;9.60;99.90
10980;DHT22;5543;51.734;8.744;2022-11-24T14:34:15;9.60;99.90
10980;DHT22;5543;51.734;8.744;2022-11-24T14:36:45;9.60;99.90
10980;DHT22;5543;51.734;8.744;2022-11-24T14:39:15;9.50;99.90
10980;DHT22;5543;51.734;8.744;2022-11-24T14:41:50;9.50;99.90
10980;DHT22;5543;51.734;8.744;2022-11-24T14:44:21;9.50;99.90
10980;DHT22;5543;51.734;8.744;2022-11-24T14:46:50;9.40;99.90
10980;DHT22;5543;51.734;8.744;2022-11-24T14:49:27;9.40;99.90
10980;DHT22;5543;51.734;8.744;2022-11-24T14:52:00;9.40;99.90
10980;DHT22;5543;51.734;8.744;2022-11-24T14:54:29;9.40;99.90
10980;DHT22;5543;51.734;8.744;2022-11-24T14:57:00;9.40;99.90
10980;DHT22;5543;51.734;8.744;2022-11-24T14:59:31;9.40;99.90
10980;DHT22;5543;51.734;8.744;2022-11-24T15:02:02;9.40;99.90
10980;DHT22;5543;51.734;8.744;2022-11-24T15:04:56;9.40;99.90
10980;DHT22;5543;51.734;8.744;2022-11-24T15:07:31;9.30;99.90
10980;DHT22;5543;51.734;8.744;2022-11-24T15:10:00;9.50;99.90
10980;DHT22;5543;51.734;8.744;2022-11-24T15:12:31;9.20;99.90
10980;DHT22;5543;51.734;8.744;2022-11-24T15:15:03;9.10;99.90
10980;DHT22;5543;51.734;8.744;2022-11-24T15:17:31;9.10;99.90
10980;DHT22;5543;51.734;8.744;2022-11-24T15:20:02;9.10;99.90
10980;DHT22;5543;51.734;8.744;2022-11-24T15:22:38;9.00;99.90
10980;DHT22;5543;51.734;8.744;2022-11-24T15:25:39;8.80;99.90
10980;DHT22;5543;51.734;8.744;2022-11-24T15:28:07;8.60;99.90
10980;DHT22;5543;51.734;8.744;2022-11-24T15:30:36;8.70;99.90
10980;DHT22;5543;51.734;8.744;2022-11-24T15:33:12;8.40;99.90
10980;DHT22;5543;51.734;8.744;2022-11-24T15:35:41;8.30;99.90
10980;DHT22;5543;51.734;8.744;2022-11-24T15:38:11;8.20;99.90
10980;DHT22;5543;51.734;8.744;2022-11-24T15:40:41;8.10;99.90
10980;DHT22;5543;51.734;8.744;2022-11-24T15:43:17;8.00;99.90
10980;DHT22;5543;51.734;8.744;2022-11-24T15:45:46;7.90;99.90
10980;DHT22;5543;51.734;8.744;2022-11-24T15:48:14;7.80;99.90
10980;DHT22;5543;51.734;8.744;2022-11-24T15:50:44;7.80;99.90
10980;DHT22;5543;51.734;8.744;2022-11-24T15:53:18;7.70;99.90
10980;DHT22;5543;51.734;8.744;2022-11-24T15:55:48;7.70;99.90
10980;DHT22;5543;51.734;8.744;2022-11-24T15:58:16;7.50;99.90
10980;DHT22;5543;51.734;8.744;2022-11-24T16:00:44;7.40;99.90
10980;DHT22;5543;51.734;8.744;2022-11-24T16:03:12;7.40;99.90
10980;DHT22;5543;51.734;8.744;2022-11-24T16:06:01;7.30;99.90
10980;DHT22;5543;51.734;8.744;2022-11-24T16:08:30;7.20;99.90
10980;DHT22;5543;51.734;8.744;2022-11-24T16:10:59;7.00;99.90
10980;DHT22;5543;51.734;8.744;2022-11-24T16:13:27;6.90;99.90
10980;DHT22;5543;51.734;8.744;2022-11-24T16:16:01;6.80;99.90
10980;DHT22;5543;51.734;8.744;2022-11-24T16:18:29;6.80;99.90
10980;DHT22;5543;51.734;8.744;2022-11-24T16:20:58;6.70;99.90
10980;DHT22;5543;51.734;8.744;2022-11-24T16:23:26;6.60;99.90
10980;DHT22;5543;51.734;8.744;2022-11-24T16:25:56;6.50;99.90
10980;DHT22;5543;51.734;8.744;2022-11-24T16:28:24;6.40;99.90
10980;DHT22;5543;51.734;8.744;2022-11-24T16:30:52;6.40;99.90
10980;DHT22;5543;51.734;8.744;2022-11-24T16:33:21;6.30;99.90
10980;DHT22;5543;51.734;8.744;2022-11-24T16:35:49;6.30;99.90
10980;DHT22;5543;51.734;8.744;2022-11-24T16:38:18;6.30;99.90
10980;DHT22;5543;51.734;8.744;2022-11-24T16:40:50;6.20;99.90
10980;DHT22;5543;51.734;8.744;2022-11-24T16:43:21;6.10;99.90